メインページ
METAR-TAF:

METAR-TAF

空港 :

プラハ, チェコ共和国

ヴァーツラフ・ハヴェル・プラハ国際空港

緯度: 50-06N, 経度: 014-15E, 海抜: 365m

現時点の気象観測

当レポートは12分前の09:30(UTC)に作成
の風 3kt、西から北東の間で変化する
気温 9°C
湿度 53%
気圧 1029 hPa
視程10km以上
1,500メートル以下は雲なし、積乱雲なし

METAR: LKPR 250930Z 35003KT 270V050 CAVOK 09/00 Q1029 NOSIG

時間: 10:42 (09:42 UTC)

予報

当レポートは4時間42分前の05:00(UTC)に作成
予報は25日の 06時(UTC)から 26日の 12時(UTC)まで有効
変向風 2kt
視程10km以上
1,500メートル以下は雲なし、積乱雲なし
25日の 18時(UTC)から 25日の 21時(UTC)まで徐々に
の風 5kt
26日の 04時(UTC)から 26日の 07時(UTC)まで徐々に
の風 7kt

TAF: LKPR 250500Z 2506/2612 VRB02KT CAVOK BECMG 2518/2521 35005KT BECMG 2604/2607 08007KT

4,000以上の空港の気象観測と天気予報(METAR報とTAF報)

利用可能な観測所は地図上に黄色い丸と赤い丸で示す。

丸の上にカーソルを重ねると観測所名を参照できる。

次にクリックすると気象観測と天気予報を参照できる。

マップの切り替え:黒色「×」印の緑ボタンをクリックして拡大、「-」印の緑ボタンをクリックして縮小、緑色の三角印をクリックして隣りの地図に切り替え


METAR-TAF: